sensor_id;sensor_type;location;lat;lon;timestamp;pressure;altitude;pressure_sealevel;temperature;humidity
68169;BME280;54981;50.206;15.978;2023-02-13T00:00:40;100981.09;;;2.03;100.00
68169;BME280;54981;50.206;15.978;2023-02-13T00:03:11;100976.78;;;2.08;100.00
68169;BME280;54981;50.206;15.978;2023-02-13T00:05:42;100978.50;;;2.06;100.00
68169;BME280;54981;50.206;15.978;2023-02-13T00:08:12;100977.59;;;2.04;100.00
68169;BME280;54981;50.206;15.978;2023-02-13T00:10:42;100983.69;;;2.01;100.00
68169;BME280;54981;50.206;15.978;2023-02-13T00:13:13;100981.88;;;1.97;100.00
68169;BME280;54981;50.206;15.978;2023-02-13T00:15:43;100971.34;;;1.92;100.00
68169;BME280;54981;50.206;15.978;2023-02-13T00:18:14;100973.91;;;1.89;100.00
68169;BME280;54981;50.206;15.978;2023-02-13T00:20:44;100965.16;;;1.90;100.00
68169;BME280;54981;50.206;15.978;2023-02-13T00:23:15;100967.81;;;1.94;100.00
68169;BME280;54981;50.206;15.978;2023-02-13T00:25:45;100963.44;;;1.92;100.00
68169;BME280;54981;50.206;15.978;2023-02-13T00:28:15;100965.22;;;1.95;100.00
68169;BME280;54981;50.206;15.978;2023-02-13T00:30:46;100961.72;;;1.96;100.00
68169;BME280;54981;50.206;15.978;2023-02-13T00:33:16;100967.84;;;1.95;100.00
68169;BME280;54981;50.206;15.978;2023-02-13T00:35:46;100971.34;;;1.94;100.00
68169;BME280;54981;50.206;15.978;2023-02-13T00:38:17;100965.19;;;1.94;100.00
68169;BME280;54981;50.206;15.978;2023-02-13T00:40:47;100960.81;;;1.94;100.00
68169;BME280;54981;50.206;15.978;2023-02-13T00:43:17;100965.16;;;1.90;100.00
68169;BME280;54981;50.206;15.978;2023-02-13T00:45:48;100968.59;;;1.86;100.00
68169;BME280;54981;50.206;15.978;2023-02-13T00:48:18;100973.88;;;1.86;100.00
68169;BME280;54981;50.206;15.978;2023-02-13T00:50:48;100970.44;;;1.90;100.00
68169;BME280;54981;50.206;15.978;2023-02-13T00:53:22;100965.22;;;1.97;100.00
68169;BME280;54981;50.206;15.978;2023-02-13T00:55:53;100978.44;;;2.00;100.00
68169;BME280;54981;50.206;15.978;2023-02-13T00:58:24;100976.69;;;2.02;100.00
68169;BME280;54981;50.206;15.978;2023-02-13T01:00:54;100974.13;;;2.05;100.00
68169;BME280;54981;50.206;15.978;2023-02-13T01:03:25;100977.66;;;2.07;100.00
68169;BME280;54981;50.206;15.978;2023-02-13T01:05:56;100968.91;;;2.09;100.00
68169;BME280;54981;50.206;15.978;2023-02-13T01:08:27;100970.69;;;2.13;100.00
68169;BME280;54981;50.206;15.978;2023-02-13T01:10:57;100972.53;;;2.19;100.00
68169;BME280;54981;50.206;15.978;2023-02-13T01:13:28;100965.63;;;2.29;100.00
68169;BME280;54981;50.206;15.978;2023-02-13T01:15:58;100966.47;;;2.25;100.00
68169;BME280;54981;50.206;15.978;2023-02-13T01:18:29;100969.00;;;2.19;100.00
68169;BME280;54981;50.206;15.978;2023-02-13T01:21:02;100972.53;;;2.19;100.00
68169;BME280;54981;50.206;15.978;2023-02-13T01:23:35;100968.13;;;2.18;100.00
68169;BME280;54981;50.206;15.978;2023-02-13T01:26:07;100969.03;;;2.20;100.00
68169;BME280;54981;50.206;15.978;2023-02-13T01:28:38;100968.22;;;2.24;100.00
68169;BME280;54981;50.206;15.978;2023-02-13T01:31:08;100972.59;;;2.25;100.00
68169;BME280;54981;50.206;15.978;2023-02-13T01:33:38;100969.97;;;2.25;100.00
68169;BME280;54981;50.206;15.978;2023-02-13T01:36:10;100969.13;;;2.29;100.00
68169;BME280;54981;50.206;15.978;2023-02-13T01:38:41;100979.69;;;2.32;100.00
68169;BME280;54981;50.206;15.978;2023-02-13T01:41:12;100971.84;;;2.37;100.00
68169;BME280;54981;50.206;15.978;2023-02-13T01:43:56;100966.63;;;2.40;100.00
68169;BME280;54981;50.206;15.978;2023-02-13T01:46:36;100971.94;;;2.43;100.00
68169;BME280;54981;50.206;15.978;2023-02-13T01:49:14;100963.13;;;2.43;100.00
68169;BME280;54981;50.206;15.978;2023-02-13T01:51:48;100964.03;;;2.43;100.00
68169;BME280;54981;50.206;15.978;2023-02-13T01:54:33;100962.25;;;2.41;100.00
68169;BME280;54981;50.206;15.978;2023-02-13T01:57:08;100956.13;;;2.42;100.00
68169;BME280;54981;50.206;15.978;2023-02-13T02:02:14;100954.41;;;2.44;100.00
68169;BME280;54981;50.206;15.978;2023-02-13T02:04:47;100950.88;;;2.45;100.00
68169;BME280;54981;50.206;15.978;2023-02-13T02:07:23;100949.13;;;2.41;100.00
68169;BME280;54981;50.206;15.978;2023-02-13T02:10:01;100942.97;;;2.42;100.00
68169;BME280;54981;50.206;15.978;2023-02-13T02:15:16;100946.50;;;2.41;100.00
68169;BME280;54981;50.206;15.978;2023-02-13T02:17:46;100957.00;;;2.41;100.00
68169;BME280;54981;50.206;15.978;2023-02-13T02:23:45;100953.50;;;2.42;100.00
68169;BME280;54981;50.206;15.978;2023-02-13T02:33:11;100951.78;;;2.44;100.00
68169;BME280;54981;50.206;15.978;2023-02-13T02:41:20;100938.59;;;2.42;100.00
68169;BME280;54981;50.206;15.978;2023-02-13T02:44:27;100938.63;;;2.44;100.00
68169;BME280;54981;50.206;15.978;2023-02-13T02:47:24;100938.63;;;2.45;100.00
68169;BME280;54981;50.206;15.978;2023-02-13T02:50:25;100945.69;;;2.48;100.00
68169;BME280;54981;50.206;15.978;2023-02-13T02:58:47;100932.50;;;2.45;100.00
68169;BME280;54981;50.206;15.978;2023-02-13T03:01:40;100942.16;;;2.47;100.00
68169;BME280;54981;50.206;15.978;2023-02-13T03:04:38;100943.00;;;2.45;100.00
68169;BME280;54981;50.206;15.978;2023-02-13T03:07:28;100944.72;;;2.40;100.00
68169;BME280;54981;50.206;15.978;2023-02-13T03:10:02;100937.66;;;2.37;100.00
68169;BME280;54981;50.206;15.978;2023-02-13T03:12:54;100935.91;;;2.34;100.00
68169;BME280;54981;50.206;15.978;2023-02-13T03:15:46;100942.88;;;2.32;100.00
68169;BME280;54981;50.206;15.978;2023-02-13T03:18:43;100942.84;;;2.29;100.00
68169;BME280;54981;50.206;15.978;2023-02-13T03:21:47;100932.25;;;2.23;100.00
68169;BME280;54981;50.206;15.978;2023-02-13T03:33:32;100942.78;;;2.23;100.00
68169;BME280;54981;50.206;15.978;2023-02-13T03:42:00;100942.88;;;2.31;100.00
68169;BME280;54981;50.206;15.978;2023-02-13T03:44:36;100945.47;;;2.29;100.00
68169;BME280;54981;50.206;15.978;2023-02-13T03:47:09;100956.00;;;2.29;100.00
68169;BME280;54981;50.206;15.978;2023-02-13T03:49:45;100947.19;;;2.26;100.00
68169;BME280;54981;50.206;15.978;2023-02-13T03:52:44;100942.78;;;2.23;100.00
68169;BME280;54981;50.206;15.978;2023-02-13T03:55:18;100948.94;;;2.25;100.00
68169;BME280;54981;50.206;15.978;2023-02-13T03:58:13;100957.75;;;2.29;100.00
68169;BME280;54981;50.206;15.978;2023-02-13T04:01:03;100954.25;;;2.30;100.00
68169;BME280;54981;50.206;15.978;2023-02-13T04:03:53;100950.72;;;2.28;100.00
68169;BME280;54981;50.206;15.978;2023-02-13T04:06:47;100962.91;;;2.21;100.00
68169;BME280;54981;50.206;15.978;2023-02-13T04:09:19;100959.41;;;2.22;100.00
68169;BME280;54981;50.206;15.978;2023-02-13T04:17:23;100956.81;;;2.25;100.00
68169;BME280;54981;50.206;15.978;2023-02-13T04:19:56;100956.81;;;2.25;100.00
68169;BME280;54981;50.206;15.978;2023-02-13T04:22:27;100952.44;;;2.26;100.00
68169;BME280;54981;50.206;15.978;2023-02-13T04:24:57;100950.72;;;2.26;100.00
68169;BME280;54981;50.206;15.978;2023-02-13T04:27:27;100952.47;;;2.27;100.00
68169;BME280;54981;50.206;15.978;2023-02-13T04:29:58;100945.47;;;2.29;100.00
68169;BME280;54981;50.206;15.978;2023-02-13T04:32:28;100941.97;;;2.30;100.00
68169;BME280;54981;50.206;15.978;2023-02-13T04:34:58;100940.25;;;2.31;100.00
68169;BME280;54981;50.206;15.978;2023-02-13T04:37:29;100922.69;;;2.30;100.00
68169;BME280;54981;50.206;15.978;2023-02-13T04:39:59;100907.81;;;2.30;100.00
68169;BME280;54981;50.206;15.978;2023-02-13T04:42:30;100900.81;;;2.32;100.00
68169;BME280;54981;50.206;15.978;2023-02-13T04:45:00;100902.59;;;2.33;100.00
68169;BME280;54981;50.206;15.978;2023-02-13T04:47:30;100907.88;;;2.38;100.00
68169;BME280;54981;50.206;15.978;2023-02-13T04:50:01;100907.09;;;2.47;100.00
68169;BME280;54981;50.206;15.978;2023-02-13T04:52:31;100911.56;;;2.57;100.00
68169;BME280;54981;50.206;15.978;2023-02-13T04:55:02;100920.31;;;2.53;100.00
68169;BME280;54981;50.206;15.978;2023-02-13T04:57:33;100906.06;;;2.29;100.00
68169;BME280;54981;50.206;15.978;2023-02-13T05:00:04;100894.66;;;2.29;100.00
68169;BME280;54981;50.206;15.978;2023-02-13T05:02:35;100890.25;;;2.26;100.00
68169;BME280;54981;50.206;15.978;2023-02-13T05:05:06;100885.88;;;2.27;100.00
68169;BME280;54981;50.206;15.978;2023-02-13T05:07:36;100885.06;;;2.31;100.00
68169;BME280;54981;50.206;15.978;2023-02-13T05:10:08;100892.97;;;2.37;100.00
68169;BME280;54981;50.206;15.978;2023-02-13T05:12:39;100893.00;;;2.39;100.00
68169;BME280;54981;50.206;15.978;2023-02-13T05:15:09;100900.06;;;2.44;100.00
68169;BME280;54981;50.206;15.978;2023-02-13T05:17:43;100929.63;;;2.22;100.00
68169;BME280;54981;50.206;15.978;2023-02-13T05:20:14;100941.81;;;2.15;100.00
68169;BME280;54981;50.206;15.978;2023-02-13T05:22:52;100938.50;;;2.33;100.00
68169;BME280;54981;50.206;15.978;2023-02-13T05:25:41;100940.28;;;2.34;100.00
68169;BME280;54981;50.206;15.978;2023-02-13T05:28:12;100944.66;;;2.33;100.00
68169;BME280;54981;50.206;15.978;2023-02-13T05:31:01;100946.38;;;2.31;100.00
68169;BME280;54981;50.206;15.978;2023-02-13T05:33:31;100934.94;;;2.28;100.00
68169;BME280;54981;50.206;15.978;2023-02-13T05:36:01;100936.66;;;2.26;100.00
68169;BME280;54981;50.206;15.978;2023-02-13T05:38:32;100937.59;;;2.29;100.00
68169;BME280;54981;50.206;15.978;2023-02-13T05:41:03;100930.47;;;2.19;100.00
68169;BME280;54981;50.206;15.978;2023-02-13T05:43:33;100927.97;;;2.33;100.00
68169;BME280;54981;50.206;15.978;2023-02-13T05:46:05;100944.56;;;2.27;100.00
68169;BME280;54981;50.206;15.978;2023-02-13T05:48:36;100962.75;;;2.09;100.00
68169;BME280;54981;50.206;15.978;2023-02-13T05:51:06;100951.44;;;2.16;100.00
68169;BME280;54981;50.206;15.978;2023-02-13T05:53:37;100952.38;;;2.21;100.00
68169;BME280;54981;50.206;15.978;2023-02-13T05:56:07;100948.81;;;2.15;100.00
68169;BME280;54981;50.206;15.978;2023-02-13T05:58:37;100947.09;;;2.17;100.00
68169;BME280;54981;50.206;15.978;2023-02-13T06:01:08;100940.94;;;2.16;100.00
68169;BME280;54981;50.206;15.978;2023-02-13T06:03:38;100948.84;;;2.18;100.00
68169;BME280;54981;50.206;15.978;2023-02-13T06:06:09;100959.34;;;2.16;100.00
68169;BME280;54981;50.206;15.978;2023-02-13T06:08:39;100945.28;;;2.12;100.00
68169;BME280;54981;50.206;15.978;2023-02-13T06:11:10;100960.22;;;2.15;100.00
68169;BME280;54981;50.206;15.978;2023-02-13T06:13:40;100966.38;;;2.17;100.00
68169;BME280;54981;50.206;15.978;2023-02-13T06:16:11;100969.88;;;2.18;100.00
68169;BME280;54981;50.206;15.978;2023-02-13T06:18:42;100967.22;;;2.16;100.00
68169;BME280;54981;50.206;15.978;2023-02-13T06:21:12;100968.94;;;2.14;100.00
68169;BME280;54981;50.206;15.978;2023-02-13T06:23:43;100972.47;;;2.16;100.00
68169;BME280;54981;50.206;15.978;2023-02-13T06:26:13;100973.38;;;2.18;100.00
68169;BME280;54981;50.206;15.978;2023-02-13T06:28:44;100971.66;;;2.20;100.00
68169;BME280;54981;50.206;15.978;2023-02-13T06:31:14;100976.06;;;2.23;100.00
68169;BME280;54981;50.206;15.978;2023-02-13T06:33:45;100974.34;;;2.25;100.00
68169;BME280;54981;50.206;15.978;2023-02-13T06:36:15;100969.06;;;2.23;100.00
68169;BME280;54981;50.206;15.978;2023-02-13T06:38:45;100965.53;;;2.21;100.00
68169;BME280;54981;50.206;15.978;2023-02-13T06:41:15;100962.09;;;2.27;100.00
68169;BME280;54981;50.206;15.978;2023-02-13T06:43:46;100964.78;;;2.31;100.00
68169;BME280;54981;50.206;15.978;2023-02-13T06:46:16;100968.31;;;2.33;100.00
68169;BME280;54981;50.206;15.978;2023-02-13T06:48:47;100967.47;;;2.38;100.00
68169;BME280;54981;50.206;15.978;2023-02-13T06:51:17;100962.25;;;2.41;100.00
68169;BME280;54981;50.206;15.978;2023-02-13T06:53:47;100969.25;;;2.39;100.00
68169;BME280;54981;50.206;15.978;2023-02-13T06:56:18;100976.25;;;2.40;100.00
68169;BME280;54981;50.206;15.978;2023-02-13T06:58:48;100971.03;;;2.43;100.00
68169;BME280;54981;50.206;15.978;2023-02-13T07:01:18;100974.56;;;2.43;100.00
68169;BME280;54981;50.206;15.978;2023-02-13T07:03:49;100985.03;;;2.40;100.00
68169;BME280;54981;50.206;15.978;2023-02-13T07:06:19;100982.41;;;2.42;100.00
68169;BME280;54981;50.206;15.978;2023-02-13T07:08:50;100979.78;;;2.42;100.00
68169;BME280;54981;50.206;15.978;2023-02-13T07:11:24;100980.75;;;2.50;100.00
68169;BME280;54981;50.206;15.978;2023-02-13T07:13:54;100977.25;;;2.52;100.00
68169;BME280;54981;50.206;15.978;2023-02-13T07:16:25;100981.72;;;2.58;100.00
68169;BME280;54981;50.206;15.978;2023-02-13T07:18:55;100980.00;;;2.60;100.00
68169;BME280;54981;50.206;15.978;2023-02-13T07:21:25;100983.56;;;2.65;100.00
68169;BME280;54981;50.206;15.978;2023-02-13T07:23:56;100978.31;;;2.68;100.00
68169;BME280;54981;50.206;15.978;2023-02-13T07:26:26;100991.50;;;2.70;100.00
68169;BME280;54981;50.206;15.978;2023-02-13T07:28:57;100992.41;;;2.72;100.00
68169;BME280;54981;50.206;15.978;2023-02-13T07:31:27;100998.56;;;2.75;100.00
68169;BME280;54981;50.206;15.978;2023-02-13T07:33:57;100994.16;;;2.73;100.00
68169;BME280;54981;50.206;15.978;2023-02-13T07:36:28;100995.91;;;2.72;100.00
68169;BME280;54981;50.206;15.978;2023-02-13T07:38:58;100999.34;;;2.68;100.00
68169;BME280;54981;50.206;15.978;2023-02-13T07:41:28;101002.06;;;2.74;100.00
68169;BME280;54981;50.206;15.978;2023-02-13T07:43:59;101002.88;;;2.70;100.00
68169;BME280;54981;50.206;15.978;2023-02-13T07:46:29;101006.38;;;2.69;100.00
68169;BME280;54981;50.206;15.978;2023-02-13T07:48:59;101002.00;;;2.71;100.00
68169;BME280;54981;50.206;15.978;2023-02-13T07:51:30;101001.22;;;2.80;100.00
68169;BME280;54981;50.206;15.978;2023-02-13T07:54:00;100996.91;;;2.88;100.00
68169;BME280;54981;50.206;15.978;2023-02-13T07:56:31;100991.75;;;2.96;100.00
68169;BME280;54981;50.206;15.978;2023-02-13T07:59:01;100994.38;;;2.96;100.00
68169;BME280;54981;50.206;15.978;2023-02-13T08:01:31;100986.53;;;3.02;100.00
68169;BME280;54981;50.206;15.978;2023-02-13T08:04:02;100987.44;;;3.07;100.00
68169;BME280;54981;50.206;15.978;2023-02-13T08:06:32;100987.44;;;3.07;100.00
68169;BME280;54981;50.206;15.978;2023-02-13T08:09:02;100983.97;;;3.11;100.00
68169;BME280;54981;50.206;15.978;2023-02-13T08:11:52;100994.53;;;3.16;100.00
68169;BME280;54981;50.206;15.978;2023-02-13T08:14:25;100985.78;;;3.18;100.00
68169;BME280;54981;50.206;15.978;2023-02-13T08:16:57;100977.88;;;3.17;100.00
68169;BME280;54981;50.206;15.978;2023-02-13T08:19:28;100978.75;;;3.19;100.00
68169;BME280;54981;50.206;15.978;2023-02-13T08:21:58;100971.78;;;3.24;100.00
68169;BME280;54981;50.206;15.978;2023-02-13T08:24:29;100986.75;;;3.28;100.00
68169;BME280;54981;50.206;15.978;2023-02-13T08:26:59;100968.34;;;3.36;100.00
68169;BME280;54981;50.206;15.978;2023-02-13T08:29:29;100970.16;;;3.40;100.00
68169;BME280;54981;50.206;15.978;2023-02-13T08:32:00;100968.41;;;3.42;100.00
68169;BME280;54981;50.206;15.978;2023-02-13T08:34:30;100969.31;;;3.47;100.00
68169;BME280;54981;50.206;15.978;2023-02-13T08:37:01;100974.59;;;3.47;100.00
68169;BME280;54981;50.206;15.978;2023-02-13T08:39:32;100975.50;;;3.55;100.00
68169;BME280;54981;50.206;15.978;2023-02-13T08:42:02;100976.41;;;3.60;100.00
68169;BME280;54981;50.206;15.978;2023-02-13T08:44:32;100972.03;;;3.62;100.00
68169;BME280;54981;50.206;15.978;2023-02-13T08:47:03;100978.22;;;3.66;100.00
68169;BME280;54981;50.206;15.978;2023-02-13T08:49:33;100981.75;;;3.67;100.00
68169;BME280;54981;50.206;15.978;2023-02-13T08:52:04;100971.22;;;3.70;100.00
68169;BME280;54981;50.206;15.978;2023-02-13T08:54:34;60100.03;;;-145.37;100.00
68169;BME280;54981;50.206;15.978;2023-02-13T08:57:05;60100.03;;;-145.37;100.00
68169;BME280;54981;50.206;15.978;2023-02-13T08:59:35;60100.03;;;-145.37;100.00
68169;BME280;54981;50.206;15.978;2023-02-13T09:02:09;60100.03;;;-145.37;100.00
68169;BME280;54981;50.206;15.978;2023-02-13T09:04:39;60100.03;;;-145.37;100.00
68169;BME280;54981;50.206;15.978;2023-02-13T09:07:10;60100.03;;;-145.37;100.00
68169;BME280;54981;50.206;15.978;2023-02-13T09:09:41;60100.03;;;-145.37;100.00
68169;BME280;54981;50.206;15.978;2023-02-13T09:12:11;60100.03;;;-145.37;100.00
68169;BME280;54981;50.206;15.978;2023-02-13T09:14:43;60100.03;;;-145.37;100.00
68169;BME280;54981;50.206;15.978;2023-02-13T09:17:13;60100.03;;;-145.37;100.00
68169;BME280;54981;50.206;15.978;2023-02-13T09:19:47;60100.03;;;-145.37;100.00
68169;BME280;54981;50.206;15.978;2023-02-13T09:22:17;60100.03;;;-145.37;100.00
68169;BME280;54981;50.206;15.978;2023-02-13T09:24:48;60100.03;;;-145.37;100.00
68169;BME280;54981;50.206;15.978;2023-02-13T09:27:18;60100.03;;;-145.37;100.00
68169;BME280;54981;50.206;15.978;2023-02-13T09:29:48;60100.03;;;-145.37;100.00
68169;BME280;54981;50.206;15.978;2023-02-13T09:32:19;60100.03;;;-145.37;100.00
68169;BME280;54981;50.206;15.978;2023-02-13T09:34:49;60100.03;;;-145.37;100.00
68169;BME280;54981;50.206;15.978;2023-02-13T09:37:19;60100.03;;;-145.37;100.00
68169;BME280;54981;50.206;15.978;2023-02-13T09:39:52;60100.03;;;-145.37;100.00
68169;BME280;54981;50.206;15.978;2023-02-13T09:42:28;60100.03;;;-145.37;100.00
68169;BME280;54981;50.206;15.978;2023-02-13T09:45:02;60100.03;;;-145.37;100.00
68169;BME280;54981;50.206;15.978;2023-02-13T09:47:36;60100.03;;;-145.37;100.00
68169;BME280;54981;50.206;15.978;2023-02-13T09:50:20;60100.03;;;-145.37;100.00
68169;BME280;54981;50.206;15.978;2023-02-13T09:52:54;60100.03;;;-145.37;100.00
68169;BME280;54981;50.206;15.978;2023-02-13T09:55:39;60100.03;;;-145.37;100.00
68169;BME280;54981;50.206;15.978;2023-02-13T09:58:25;60100.03;;;-145.37;100.00
68169;BME280;54981;50.206;15.978;2023-02-13T10:00:59;60100.03;;;-145.37;100.00
68169;BME280;54981;50.206;15.978;2023-02-13T10:03:45;60100.03;;;-145.37;100.00
68169;BME280;54981;50.206;15.978;2023-02-13T10:06:32;60100.03;;;-145.37;100.00
68169;BME280;54981;50.206;15.978;2023-02-13T10:09:14;60100.03;;;-145.37;100.00
68169;BME280;54981;50.206;15.978;2023-02-13T10:20:36;60100.03;;;-145.37;100.00
68169;BME280;54981;50.206;15.978;2023-02-13T10:25:53;60100.03;;;-145.37;100.00
68169;BME280;54981;50.206;15.978;2023-02-13T10:29:03;60100.03;;;-145.37;100.00
68169;BME280;54981;50.206;15.978;2023-02-13T10:31:55;60100.03;;;-145.37;100.00
68169;BME280;54981;50.206;15.978;2023-02-13T10:34:31;60100.03;;;-145.37;100.00
68169;BME280;54981;50.206;15.978;2023-02-13T10:37:18;60100.03;;;-145.37;100.00
68169;BME280;54981;50.206;15.978;2023-02-13T10:39:51;60100.03;;;-145.37;100.00
68169;BME280;54981;50.206;15.978;2023-02-13T10:42:34;60100.03;;;-145.37;100.00
68169;BME280;54981;50.206;15.978;2023-02-13T10:48:18;60100.03;;;-145.37;100.00
68169;BME280;54981;50.206;15.978;2023-02-13T10:56:33;60100.03;;;-145.37;100.00
68169;BME280;54981;50.206;15.978;2023-02-13T11:01:53;60100.03;;;-145.37;100.00
68169;BME280;54981;50.206;15.978;2023-02-13T11:04:25;60100.03;;;-145.37;100.00
68169;BME280;54981;50.206;15.978;2023-02-13T11:07:00;60100.03;;;-145.37;100.00
68169;BME280;54981;50.206;15.978;2023-02-13T11:09:37;60100.03;;;-145.37;100.00
68169;BME280;54981;50.206;15.978;2023-02-13T11:12:30;60100.03;;;-145.37;100.00
68169;BME280;54981;50.206;15.978;2023-02-13T11:15:04;60100.03;;;-145.37;100.00
68169;BME280;54981;50.206;15.978;2023-02-13T11:17:35;60100.03;;;-145.37;100.00
68169;BME280;54981;50.206;15.978;2023-02-13T11:20:45;60100.03;;;-145.37;100.00
68169;BME280;54981;50.206;15.978;2023-02-13T11:26:14;60100.03;;;-145.37;100.00
68169;BME280;54981;50.206;15.978;2023-02-13T11:28:56;60100.03;;;-145.37;100.00
68169;BME280;54981;50.206;15.978;2023-02-13T11:31:28;60100.03;;;-145.37;100.00
68169;BME280;54981;50.206;15.978;2023-02-13T11:34:16;60100.03;;;-145.37;100.00
68169;BME280;54981;50.206;15.978;2023-02-13T11:36:52;60100.03;;;-145.37;100.00
68169;BME280;54981;50.206;15.978;2023-02-13T11:39:25;60100.03;;;-145.37;100.00
68169;BME280;54981;50.206;15.978;2023-02-13T11:41:55;60100.03;;;-145.37;100.00
68169;BME280;54981;50.206;15.978;2023-02-13T11:44:28;60100.03;;;-145.37;100.00
68169;BME280;54981;50.206;15.978;2023-02-13T11:47:00;60100.03;;;-145.37;100.00
68169;BME280;54981;50.206;15.978;2023-02-13T11:49:37;60100.03;;;-145.37;100.00
68169;BME280;54981;50.206;15.978;2023-02-13T11:52:23;60100.03;;;-145.37;100.00
68169;BME280;54981;50.206;15.978;2023-02-13T11:55:24;60100.03;;;-145.37;100.00
68169;BME280;54981;50.206;15.978;2023-02-13T12:00:45;60100.03;;;-145.37;100.00
68169;BME280;54981;50.206;15.978;2023-02-13T12:03:31;60100.03;;;-145.37;100.00
68169;BME280;54981;50.206;15.978;2023-02-13T12:08:37;60100.03;;;-145.37;100.00
68169;BME280;54981;50.206;15.978;2023-02-13T12:14:11;60100.03;;;-145.37;100.00
68169;BME280;54981;50.206;15.978;2023-02-13T12:17:06;60100.03;;;-145.37;100.00
68169;BME280;54981;50.206;15.978;2023-02-13T12:19:41;60100.03;;;-145.37;100.00
68169;BME280;54981;50.206;15.978;2023-02-13T12:22:29;60100.03;;;-145.37;100.00
68169;BME280;54981;50.206;15.978;2023-02-13T12:31:20;60100.03;;;-145.37;100.00
68169;BME280;54981;50.206;15.978;2023-02-13T12:48:08;60100.03;;;-145.37;100.00
68169;BME280;54981;50.206;15.978;2023-02-13T12:56:52;60100.03;;;-145.37;100.00
68169;BME280;54981;50.206;15.978;2023-02-13T13:05:35;60100.03;;;-145.37;100.00
68169;BME280;54981;50.206;15.978;2023-02-13T13:11:03;60100.03;;;-145.37;100.00
68169;BME280;54981;50.206;15.978;2023-02-13T13:13:56;60100.03;;;-145.37;100.00
68169;BME280;54981;50.206;15.978;2023-02-13T13:22:11;60100.03;;;-145.37;100.00
68169;BME280;54981;50.206;15.978;2023-02-13T13:25:09;60100.03;;;-145.37;100.00
68169;BME280;54981;50.206;15.978;2023-02-13T13:27:44;60100.03;;;-145.37;100.00
68169;BME280;54981;50.206;15.978;2023-02-13T13:30:20;60100.03;;;-145.37;100.00
68169;BME280;54981;50.206;15.978;2023-02-13T13:33:02;60100.03;;;-145.37;100.00
68169;BME280;54981;50.206;15.978;2023-02-13T13:35:37;60100.03;;;-145.37;100.00
68169;BME280;54981;50.206;15.978;2023-02-13T13:41:16;60100.03;;;-145.37;100.00
68169;BME280;54981;50.206;15.978;2023-02-13T13:46:59;60100.03;;;-145.37;100.00
68169;BME280;54981;50.206;15.978;2023-02-13T13:49:47;60100.03;;;-145.37;100.00
68169;BME280;54981;50.206;15.978;2023-02-13T13:52:30;60100.03;;;-145.37;100.00
68169;BME280;54981;50.206;15.978;2023-02-13T13:55:03;60100.03;;;-145.37;100.00
68169;BME280;54981;50.206;15.978;2023-02-13T14:03:19;60100.03;;;-145.37;100.00
68169;BME280;54981;50.206;15.978;2023-02-13T14:06:02;60100.03;;;-145.37;100.00
68169;BME280;54981;50.206;15.978;2023-02-13T14:17:12;60100.03;;;-145.37;100.00
68169;BME280;54981;50.206;15.978;2023-02-13T14:19:50;60100.03;;;-145.37;100.00
68169;BME280;54981;50.206;15.978;2023-02-13T14:25:02;60100.03;;;-145.37;100.00
68169;BME280;54981;50.206;15.978;2023-02-13T14:27:38;60100.03;;;-145.37;100.00
68169;BME280;54981;50.206;15.978;2023-02-13T14:33:07;60100.03;;;-145.37;100.00
68169;BME280;54981;50.206;15.978;2023-02-13T14:36:03;60100.03;;;-145.37;100.00
68169;BME280;54981;50.206;15.978;2023-02-13T14:38:35;60100.03;;;-145.37;100.00
68169;BME280;54981;50.206;15.978;2023-02-13T14:44:23;60100.03;;;-145.37;100.00
68169;BME280;54981;50.206;15.978;2023-02-13T14:46:55;60100.03;;;-145.37;100.00
68169;BME280;54981;50.206;15.978;2023-02-13T14:49:32;60100.03;;;-145.37;100.00
68169;BME280;54981;50.206;15.978;2023-02-13T14:52:15;60100.03;;;-145.37;100.00
68169;BME280;54981;50.206;15.978;2023-02-13T14:55:02;60100.03;;;-145.37;100.00
68169;BME280;54981;50.206;15.978;2023-02-13T14:57:38;60100.03;;;-145.37;100.00
68169;BME280;54981;50.206;15.978;2023-02-13T15:06:03;60100.03;;;-145.37;100.00
68169;BME280;54981;50.206;15.978;2023-02-13T15:08:41;60100.03;;;-145.37;100.00
68169;BME280;54981;50.206;15.978;2023-02-13T15:11:50;60100.03;;;-145.37;100.00
68169;BME280;54981;50.206;15.978;2023-02-13T15:17:21;60100.03;;;-145.37;100.00
68169;BME280;54981;50.206;15.978;2023-02-13T15:19:56;60100.03;;;-145.37;100.00
68169;BME280;54981;50.206;15.978;2023-02-13T15:22:34;60100.03;;;-145.37;100.00
68169;BME280;54981;50.206;15.978;2023-02-13T15:25:22;60100.03;;;-145.37;100.00
68169;BME280;54981;50.206;15.978;2023-02-13T15:27:54;60100.03;;;-145.37;100.00
68169;BME280;54981;50.206;15.978;2023-02-13T15:30:27;60100.03;;;-145.37;100.00
68169;BME280;54981;50.206;15.978;2023-02-13T15:33:11;60100.03;;;-145.37;100.00
68169;BME280;54981;50.206;15.978;2023-02-13T15:35:46;60100.03;;;-145.37;100.00
68169;BME280;54981;50.206;15.978;2023-02-13T15:38:40;60100.03;;;-145.37;100.00
68169;BME280;54981;50.206;15.978;2023-02-13T15:41:20;60100.03;;;-145.37;100.00
68169;BME280;54981;50.206;15.978;2023-02-13T15:43:55;60100.03;;;-145.37;100.00
68169;BME280;54981;50.206;15.978;2023-02-13T15:46:30;60100.03;;;-145.37;100.00
68169;BME280;54981;50.206;15.978;2023-02-13T15:49:07;60100.03;;;-145.37;100.00
68169;BME280;54981;50.206;15.978;2023-02-13T15:51:38;60100.03;;;-145.37;100.00
68169;BME280;54981;50.206;15.978;2023-02-13T15:54:29;60100.03;;;-145.37;100.00